Terminal Aerodrome Forecast
Issued by NWS Bismarck, ND

Home | Current Version | Previous Version | Graphics & Text | Print | Product List | Glossary On
Versions: 1 2 3 4 5 6 7 8 9 10 11 12 13 14 15 16 17 18 19 20 21 22 23 24 25 26
973
FTUS43 KBIS 040520
TAFISN
TAF
KISN 040520Z 0406/0506 29009KT P6SM OVC030
     FM040900 27008KT P6SM BKN060
     FM050500 21005KT P6SM BKN030=

USA.gov is the U.S. government's official web portal to all federal, state and local government web resources and services.